Lodgepole, Nebraska
Current Conditions -  °F | °C
As of 4:53 PM on Sunday 21 Dec 2014 (Local Time) from KSNY Reporting Station
Overcast Overcast  
Wind Chill: 36°   Ceiling: 6500
Heat Index: 42°   Visibility: 10mi
Dew Point: 31°   Wind: 10mph
Humidity: 65%   Direction: 290°WNW
Pressure: 29.5"   Gusts: NA
Location:  41.15°N, 102.64°W
Report Text: KSNY 212353Z AUTO 29009KT 10SM BKN065 BKN095 OVC110 06/M01 A2950 RMK AO2 SLP010 T00561006 10067 20039 56005
Loading
Personal Weather Stations






























Interactive Weather Map New forecast layout! Learn more

10-Day Weather Forecast

Advertisements
Track Severe Weather on mobile